sensor_id;sensor_type;location;lat;lon;timestamp;P1;durP1;ratioP1;P2;durP2;ratioP2
11679;SDS011;5896;42.686;23.142;2024-03-17T00:00:55;17.48;;;8.18;;
11679;SDS011;5896;42.686;23.142;2024-03-17T00:03:20;13.43;;;6.32;;
11679;SDS011;5896;42.686;23.142;2024-03-17T00:05:47;4.45;;;2.92;;
11679;SDS011;5896;42.686;23.142;2024-03-17T00:08:13;9.73;;;3.97;;
11679;SDS011;5896;42.686;23.142;2024-03-17T00:10:39;19.85;;;8.38;;
11679;SDS011;5896;42.686;23.142;2024-03-17T00:13:05;17.95;;;7.43;;
11679;SDS011;5896;42.686;23.142;2024-03-17T00:15:31;15.45;;;6.65;;
11679;SDS011;5896;42.686;23.142;2024-03-17T00:17:57;18.42;;;8.77;;
11679;SDS011;5896;42.686;23.142;2024-03-17T00:20:22;14.48;;;6.78;;
11679;SDS011;5896;42.686;23.142;2024-03-17T00:22:49;12.60;;;6.60;;
11679;SDS011;5896;42.686;23.142;2024-03-17T00:25:18;13.75;;;7.65;;
11679;SDS011;5896;42.686;23.142;2024-03-17T00:27:43;10.85;;;6.18;;
11679;SDS011;5896;42.686;23.142;2024-03-17T00:30:10;16.38;;;6.90;;
11679;SDS011;5896;42.686;23.142;2024-03-17T00:32:40;23.08;;;8.27;;
11679;SDS011;5896;42.686;23.142;2024-03-17T00:35:09;0.98;;;0.93;;
11679;SDS011;5896;42.686;23.142;2024-03-17T00:37:38;18.23;;;9.27;;
11679;SDS011;5896;42.686;23.142;2024-03-17T00:40:04;14.38;;;6.30;;
11679;SDS011;5896;42.686;23.142;2024-03-17T00:42:31;3.75;;;2.08;;
11679;SDS011;5896;42.686;23.142;2024-03-17T00:44:57;16.02;;;7.10;;
11679;SDS011;5896;42.686;23.142;2024-03-17T00:47:25;10.50;;;4.60;;
11679;SDS011;5896;42.686;23.142;2024-03-17T00:49:50;11.02;;;6.38;;
11679;SDS011;5896;42.686;23.142;2024-03-17T00:52:16;3.15;;;1.58;;
11679;SDS011;5896;42.686;23.142;2024-03-17T00:54:42;20.83;;;10.00;;
11679;SDS011;5896;42.686;23.142;2024-03-17T00:57:07;5.15;;;3.63;;
11679;SDS011;5896;42.686;23.142;2024-03-17T00:59:33;4.15;;;2.80;;
11679;SDS011;5896;42.686;23.142;2024-03-17T01:01:58;10.02;;;5.45;;
11679;SDS011;5896;42.686;23.142;2024-03-17T01:04:23;14.30;;;5.10;;
11679;SDS011;5896;42.686;23.142;2024-03-17T01:06:49;22.38;;;10.18;;
11679;SDS011;5896;42.686;23.142;2024-03-17T01:09:14;5.30;;;3.97;;
11679;SDS011;5896;42.686;23.142;2024-03-17T01:11:40;3.55;;;2.65;;
11679;SDS011;5896;42.686;23.142;2024-03-17T01:14:05;19.38;;;7.97;;
11679;SDS011;5896;42.686;23.142;2024-03-17T01:16:32;18.63;;;7.38;;
11679;SDS011;5896;42.686;23.142;2024-03-17T01:18:58;17.73;;;6.45;;
11679;SDS011;5896;42.686;23.142;2024-03-17T01:21:23;12.07;;;6.57;;
11679;SDS011;5896;42.686;23.142;2024-03-17T01:23:49;8.23;;;3.53;;
11679;SDS011;5896;42.686;23.142;2024-03-17T01:26:14;10.15;;;4.22;;
11679;SDS011;5896;42.686;23.142;2024-03-17T01:28:40;16.38;;;8.10;;
11679;SDS011;5896;42.686;23.142;2024-03-17T01:31:06;8.00;;;5.13;;
11679;SDS011;5896;42.686;23.142;2024-03-17T01:33:31;4.28;;;1.52;;
11679;SDS011;5896;42.686;23.142;2024-03-17T01:35:57;7.35;;;5.63;;
11679;SDS011;5896;42.686;23.142;2024-03-17T01:38:22;9.27;;;3.38;;
11679;SDS011;5896;42.686;23.142;2024-03-17T01:40:47;2.08;;;1.92;;
11679;SDS011;5896;42.686;23.142;2024-03-17T01:43:13;12.07;;;8.02;;
11679;SDS011;5896;42.686;23.142;2024-03-17T01:45:38;32.20;;;9.45;;
11679;SDS011;5896;42.686;23.142;2024-03-17T01:48:04;17.10;;;6.85;;
11679;SDS011;5896;42.686;23.142;2024-03-17T01:50:38;24.55;;;10.32;;
11679;SDS011;5896;42.686;23.142;2024-03-17T01:53:07;28.90;;;12.38;;
11679;SDS011;5896;42.686;23.142;2024-03-17T01:55:39;23.27;;;10.63;;
11679;SDS011;5896;42.686;23.142;2024-03-17T01:58:06;18.65;;;6.82;;
11679;SDS011;5896;42.686;23.142;2024-03-17T02:00:35;15.38;;;7.65;;
11679;SDS011;5896;42.686;23.142;2024-03-17T02:03:05;19.30;;;9.02;;
11679;SDS011;5896;42.686;23.142;2024-03-17T02:05:31;22.20;;;8.05;;
11679;SDS011;5896;42.686;23.142;2024-03-17T02:07:59;21.30;;;7.82;;
11679;SDS011;5896;42.686;23.142;2024-03-17T02:10:24;8.00;;;4.93;;
11679;SDS011;5896;42.686;23.142;2024-03-17T02:12:50;15.77;;;6.47;;
11679;SDS011;5896;42.686;23.142;2024-03-17T02:15:16;20.95;;;9.00;;
11679;SDS011;5896;42.686;23.142;2024-03-17T02:17:41;30.65;;;9.63;;
11679;SDS011;5896;42.686;23.142;2024-03-17T02:20:07;21.48;;;9.32;;
11679;SDS011;5896;42.686;23.142;2024-03-17T02:22:34;20.33;;;8.02;;
11679;SDS011;5896;42.686;23.142;2024-03-17T02:25:00;19.80;;;8.90;;
11679;SDS011;5896;42.686;23.142;2024-03-17T02:27:26;9.57;;;5.30;;
11679;SDS011;5896;42.686;23.142;2024-03-17T02:29:51;24.08;;;4.38;;
11679;SDS011;5896;42.686;23.142;2024-03-17T02:32:16;13.30;;;4.68;;
11679;SDS011;5896;42.686;23.142;2024-03-17T02:34:42;9.00;;;6.05;;
11679;SDS011;5896;42.686;23.142;2024-03-17T02:37:09;2.67;;;1.88;;
11679;SDS011;5896;42.686;23.142;2024-03-17T02:39:35;1.45;;;1.35;;
11679;SDS011;5896;42.686;23.142;2024-03-17T02:44:31;8.13;;;2.30;;
11679;SDS011;5896;42.686;23.142;2024-03-17T02:46:58;17.05;;;6.93;;
11679;SDS011;5896;42.686;23.142;2024-03-17T02:49:27;2.05;;;1.65;;
11679;SDS011;5896;42.686;23.142;2024-03-17T02:52:00;12.75;;;6.60;;
11679;SDS011;5896;42.686;23.142;2024-03-17T02:54:26;4.38;;;3.17;;
11679;SDS011;5896;42.686;23.142;2024-03-17T02:56:51;2.75;;;1.65;;
11679;SDS011;5896;42.686;23.142;2024-03-17T02:59:16;3.58;;;1.50;;
11679;SDS011;5896;42.686;23.142;2024-03-17T03:01:42;5.10;;;2.38;;
11679;SDS011;5896;42.686;23.142;2024-03-17T03:04:08;1.75;;;1.23;;
11679;SDS011;5896;42.686;23.142;2024-03-17T03:06:33;4.55;;;2.30;;
11679;SDS011;5896;42.686;23.142;2024-03-17T03:08:59;2.25;;;1.73;;
11679;SDS011;5896;42.686;23.142;2024-03-17T03:11:25;1.75;;;1.55;;
11679;SDS011;5896;42.686;23.142;2024-03-17T03:13:50;18.60;;;6.30;;
11679;SDS011;5896;42.686;23.142;2024-03-17T03:16:16;8.73;;;4.70;;
11679;SDS011;5896;42.686;23.142;2024-03-17T03:18:43;10.45;;;2.83;;
11679;SDS011;5896;42.686;23.142;2024-03-17T03:21:09;1.35;;;1.13;;
11679;SDS011;5896;42.686;23.142;2024-03-17T03:23:36;1.52;;;0.75;;
11679;SDS011;5896;42.686;23.142;2024-03-17T03:26:02;13.93;;;6.55;;
11679;SDS011;5896;42.686;23.142;2024-03-17T03:28:29;5.55;;;3.70;;
11679;SDS011;5896;42.686;23.142;2024-03-17T03:30:56;12.70;;;4.63;;
11679;SDS011;5896;42.686;23.142;2024-03-17T03:33:23;5.63;;;2.70;;
11679;SDS011;5896;42.686;23.142;2024-03-17T03:35:48;5.30;;;3.65;;
11679;SDS011;5896;42.686;23.142;2024-03-17T03:38:15;10.50;;;2.78;;
11679;SDS011;5896;42.686;23.142;2024-03-17T03:40:41;2.30;;;1.58;;
11679;SDS011;5896;42.686;23.142;2024-03-17T03:43:07;1.77;;;1.13;;
11679;SDS011;5896;42.686;23.142;2024-03-17T03:45:36;0.95;;;0.70;;
11679;SDS011;5896;42.686;23.142;2024-03-17T03:48:02;12.70;;;6.22;;
11679;SDS011;5896;42.686;23.142;2024-03-17T03:50:28;2.50;;;1.15;;
11679;SDS011;5896;42.686;23.142;2024-03-17T03:52:54;3.40;;;1.80;;
11679;SDS011;5896;42.686;23.142;2024-03-17T03:55:19;0.95;;;0.63;;
11679;SDS011;5896;42.686;23.142;2024-03-17T03:57:45;1.83;;;1.35;;
11679;SDS011;5896;42.686;23.142;2024-03-17T04:00:12;3.72;;;1.60;;
11679;SDS011;5896;42.686;23.142;2024-03-17T04:02:43;4.18;;;1.75;;
11679;SDS011;5896;42.686;23.142;2024-03-17T04:05:09;2.25;;;1.50;;
11679;SDS011;5896;42.686;23.142;2024-03-17T04:07:36;10.43;;;5.00;;
11679;SDS011;5896;42.686;23.142;2024-03-17T04:10:02;15.57;;;5.18;;
11679;SDS011;5896;42.686;23.142;2024-03-17T04:12:28;7.68;;;3.75;;
11679;SDS011;5896;42.686;23.142;2024-03-17T04:14:56;5.35;;;3.35;;
11679;SDS011;5896;42.686;23.142;2024-03-17T04:17:22;5.40;;;1.30;;
11679;SDS011;5896;42.686;23.142;2024-03-17T04:19:50;5.60;;;2.65;;
11679;SDS011;5896;42.686;23.142;2024-03-17T04:22:17;3.10;;;2.90;;
11679;SDS011;5896;42.686;23.142;2024-03-17T04:24:43;2.97;;;1.50;;
11679;SDS011;5896;42.686;23.142;2024-03-17T04:27:09;2.47;;;1.52;;
11679;SDS011;5896;42.686;23.142;2024-03-17T04:29:34;1.08;;;0.93;;
11679;SDS011;5896;42.686;23.142;2024-03-17T04:32:00;4.43;;;1.98;;
11679;SDS011;5896;42.686;23.142;2024-03-17T04:34:26;4.90;;;4.43;;
11679;SDS011;5896;42.686;23.142;2024-03-17T04:36:52;8.38;;;3.45;;
11679;SDS011;5896;42.686;23.142;2024-03-17T04:39:18;3.15;;;2.33;;
11679;SDS011;5896;42.686;23.142;2024-03-17T04:41:44;2.60;;;1.88;;
11679;SDS011;5896;42.686;23.142;2024-03-17T04:44:10;3.67;;;1.63;;
11679;SDS011;5896;42.686;23.142;2024-03-17T04:46:36;6.75;;;3.90;;
11679;SDS011;5896;42.686;23.142;2024-03-17T04:49:01;7.07;;;3.45;;
11679;SDS011;5896;42.686;23.142;2024-03-17T04:51:28;16.42;;;6.47;;
11679;SDS011;5896;42.686;23.142;2024-03-17T04:53:54;11.88;;;5.07;;
11679;SDS011;5896;42.686;23.142;2024-03-17T04:56:20;7.10;;;4.13;;
11679;SDS011;5896;42.686;23.142;2024-03-17T04:58:45;6.88;;;3.53;;
11679;SDS011;5896;42.686;23.142;2024-03-17T05:01:10;6.60;;;3.45;;
11679;SDS011;5896;42.686;23.142;2024-03-17T05:03:37;3.92;;;3.47;;
11679;SDS011;5896;42.686;23.142;2024-03-17T05:06:03;10.57;;;6.63;;
11679;SDS011;5896;42.686;23.142;2024-03-17T05:08:29;11.27;;;5.65;;
11679;SDS011;5896;42.686;23.142;2024-03-17T05:11:02;12.35;;;6.30;;
11679;SDS011;5896;42.686;23.142;2024-03-17T05:13:32;9.77;;;5.60;;
11679;SDS011;5896;42.686;23.142;2024-03-17T05:16:00;17.17;;;7.75;;
11679;SDS011;5896;42.686;23.142;2024-03-17T05:18:26;22.17;;;9.90;;
11679;SDS011;5896;42.686;23.142;2024-03-17T05:20:58;37.35;;;15.38;;
11679;SDS011;5896;42.686;23.142;2024-03-17T05:23:30;19.55;;;8.27;;
11679;SDS011;5896;42.686;23.142;2024-03-17T05:25:58;15.38;;;7.35;;
11679;SDS011;5896;42.686;23.142;2024-03-17T05:28:24;18.42;;;7.85;;
11679;SDS011;5896;42.686;23.142;2024-03-17T05:30:50;24.05;;;8.43;;
11679;SDS011;5896;42.686;23.142;2024-03-17T05:33:19;20.77;;;9.38;;
11679;SDS011;5896;42.686;23.142;2024-03-17T05:36:00;26.65;;;10.50;;
11679;SDS011;5896;42.686;23.142;2024-03-17T05:38:28;17.48;;;8.23;;
11679;SDS011;5896;42.686;23.142;2024-03-17T05:41:04;19.88;;;9.02;;
11679;SDS011;5896;42.686;23.142;2024-03-17T05:43:35;24.77;;;10.52;;
11679;SDS011;5896;42.686;23.142;2024-03-17T05:46:01;16.52;;;9.32;;
11679;SDS011;5896;42.686;23.142;2024-03-17T05:48:28;21.55;;;10.35;;
11679;SDS011;5896;42.686;23.142;2024-03-17T05:50:53;19.20;;;9.68;;
11679;SDS011;5896;42.686;23.142;2024-03-17T05:53:20;23.25;;;10.07;;
11679;SDS011;5896;42.686;23.142;2024-03-17T05:55:46;20.58;;;10.50;;
11679;SDS011;5896;42.686;23.142;2024-03-17T05:58:12;24.52;;;10.13;;
11679;SDS011;5896;42.686;23.142;2024-03-17T06:00:38;22.67;;;9.88;;
11679;SDS011;5896;42.686;23.142;2024-03-17T06:03:04;23.95;;;11.60;;
11679;SDS011;5896;42.686;23.142;2024-03-17T06:05:31;23.05;;;10.38;;
11679;SDS011;5896;42.686;23.142;2024-03-17T06:08:01;24.83;;;10.30;;
11679;SDS011;5896;42.686;23.142;2024-03-17T06:10:28;21.77;;;9.10;;
11679;SDS011;5896;42.686;23.142;2024-03-17T06:12:55;19.58;;;8.82;;
11679;SDS011;5896;42.686;23.142;2024-03-17T06:15:21;15.30;;;8.05;;
11679;SDS011;5896;42.686;23.142;2024-03-17T06:17:48;18.52;;;8.02;;
11679;SDS011;5896;42.686;23.142;2024-03-17T06:20:14;18.33;;;7.50;;
11679;SDS011;5896;42.686;23.142;2024-03-17T06:22:39;15.02;;;6.88;;
11679;SDS011;5896;42.686;23.142;2024-03-17T06:25:05;16.33;;;6.95;;
11679;SDS011;5896;42.686;23.142;2024-03-17T06:27:31;21.42;;;7.75;;
11679;SDS011;5896;42.686;23.142;2024-03-17T06:29:58;13.75;;;7.00;;
11679;SDS011;5896;42.686;23.142;2024-03-17T06:32:25;16.67;;;6.93;;
11679;SDS011;5896;42.686;23.142;2024-03-17T06:34:51;16.83;;;7.43;;
11679;SDS011;5896;42.686;23.142;2024-03-17T06:37:16;15.85;;;7.60;;
11679;SDS011;5896;42.686;23.142;2024-03-17T06:39:42;16.40;;;7.57;;
11679;SDS011;5896;42.686;23.142;2024-03-17T06:42:10;16.27;;;7.63;;
11679;SDS011;5896;42.686;23.142;2024-03-17T06:44:36;13.43;;;6.70;;
11679;SDS011;5896;42.686;23.142;2024-03-17T06:47:02;16.58;;;8.32;;
11679;SDS011;5896;42.686;23.142;2024-03-17T06:49:27;17.48;;;7.97;;
11679;SDS011;5896;42.686;23.142;2024-03-17T06:51:53;17.25;;;7.53;;
11679;SDS011;5896;42.686;23.142;2024-03-17T06:54:18;14.45;;;6.80;;
11679;SDS011;5896;42.686;23.142;2024-03-17T06:56:44;12.40;;;6.53;;
11679;SDS011;5896;42.686;23.142;2024-03-17T06:59:10;14.80;;;7.00;;
11679;SDS011;5896;42.686;23.142;2024-03-17T07:01:35;14.90;;;7.47;;
11679;SDS011;5896;42.686;23.142;2024-03-17T07:04:01;16.00;;;7.25;;
11679;SDS011;5896;42.686;23.142;2024-03-17T07:06:26;12.88;;;6.47;;
11679;SDS011;5896;42.686;23.142;2024-03-17T07:08:52;17.55;;;7.80;;
11679;SDS011;5896;42.686;23.142;2024-03-17T07:11:17;17.13;;;7.63;;
11679;SDS011;5896;42.686;23.142;2024-03-17T07:13:43;15.05;;;6.85;;
11679;SDS011;5896;42.686;23.142;2024-03-17T07:16:09;15.38;;;7.80;;
11679;SDS011;5896;42.686;23.142;2024-03-17T07:18:35;13.18;;;7.10;;
11679;SDS011;5896;42.686;23.142;2024-03-17T07:21:03;15.65;;;7.57;;
11679;SDS011;5896;42.686;23.142;2024-03-17T07:23:29;13.82;;;7.95;;
11679;SDS011;5896;42.686;23.142;2024-03-17T07:25:56;17.25;;;7.07;;
11679;SDS011;5896;42.686;23.142;2024-03-17T07:28:23;13.43;;;6.97;;
11679;SDS011;5896;42.686;23.142;2024-03-17T07:30:50;13.63;;;6.50;;
11679;SDS011;5896;42.686;23.142;2024-03-17T07:33:18;17.48;;;7.13;;
11679;SDS011;5896;42.686;23.142;2024-03-17T07:35:48;10.95;;;6.22;;
11679;SDS011;5896;42.686;23.142;2024-03-17T07:38:25;16.02;;;6.30;;
11679;SDS011;5896;42.686;23.142;2024-03-17T07:40:59;13.52;;;6.30;;
11679;SDS011;5896;42.686;23.142;2024-03-17T07:43:26;13.45;;;5.72;;
11679;SDS011;5896;42.686;23.142;2024-03-17T07:45:58;13.30;;;6.65;;
11679;SDS011;5896;42.686;23.142;2024-03-17T07:48:25;14.13;;;6.28;;
11679;SDS011;5896;42.686;23.142;2024-03-17T07:50:54;14.73;;;7.68;;
11679;SDS011;5896;42.686;23.142;2024-03-17T07:53:20;15.75;;;7.82;;
11679;SDS011;5896;42.686;23.142;2024-03-17T07:55:46;12.43;;;6.40;;
11679;SDS011;5896;42.686;23.142;2024-03-17T07:58:11;14.57;;;6.72;;
11679;SDS011;5896;42.686;23.142;2024-03-17T08:00:36;14.65;;;6.30;;
11679;SDS011;5896;42.686;23.142;2024-03-17T08:03:02;13.88;;;6.82;;
11679;SDS011;5896;42.686;23.142;2024-03-17T08:05:29;12.25;;;6.47;;
11679;SDS011;5896;42.686;23.142;2024-03-17T08:07:55;14.38;;;7.75;;
11679;SDS011;5896;42.686;23.142;2024-03-17T08:10:20;14.07;;;6.50;;
11679;SDS011;5896;42.686;23.142;2024-03-17T08:12:46;12.88;;;6.78;;
11679;SDS011;5896;42.686;23.142;2024-03-17T08:15:12;16.80;;;7.57;;
11679;SDS011;5896;42.686;23.142;2024-03-17T08:17:37;14.48;;;7.32;;
11679;SDS011;5896;42.686;23.142;2024-03-17T08:20:03;13.77;;;6.68;;
11679;SDS011;5896;42.686;23.142;2024-03-17T08:22:28;14.57;;;6.45;;
11679;SDS011;5896;42.686;23.142;2024-03-17T08:24:55;12.73;;;6.30;;
11679;SDS011;5896;42.686;23.142;2024-03-17T08:27:20;14.48;;;7.10;;
11679;SDS011;5896;42.686;23.142;2024-03-17T08:29:46;17.00;;;7.40;;
11679;SDS011;5896;42.686;23.142;2024-03-17T08:32:11;17.77;;;7.95;;
11679;SDS011;5896;42.686;23.142;2024-03-17T08:34:36;15.23;;;7.25;;
11679;SDS011;5896;42.686;23.142;2024-03-17T08:37:02;13.93;;;6.72;;
11679;SDS011;5896;42.686;23.142;2024-03-17T08:39:27;14.38;;;7.25;;
11679;SDS011;5896;42.686;23.142;2024-03-17T08:41:53;17.42;;;7.40;;
11679;SDS011;5896;42.686;23.142;2024-03-17T08:44:18;12.88;;;7.82;;
11679;SDS011;5896;42.686;23.142;2024-03-17T08:46:43;12.00;;;6.68;;
11679;SDS011;5896;42.686;23.142;2024-03-17T08:49:09;11.40;;;5.05;;
11679;SDS011;5896;42.686;23.142;2024-03-17T08:51:35;15.30;;;7.40;;
11679;SDS011;5896;42.686;23.142;2024-03-17T08:54:00;16.35;;;7.90;;
11679;SDS011;5896;42.686;23.142;2024-03-17T08:56:25;11.65;;;6.15;;
11679;SDS011;5896;42.686;23.142;2024-03-17T08:58:51;13.07;;;6.35;;
11679;SDS011;5896;42.686;23.142;2024-03-17T09:01:16;13.23;;;6.28;;
11679;SDS011;5896;42.686;23.142;2024-03-17T09:03:42;13.60;;;7.35;;
11679;SDS011;5896;42.686;23.142;2024-03-17T09:06:14;12.57;;;6.65;;
11679;SDS011;5896;42.686;23.142;2024-03-17T09:08:41;11.88;;;6.18;;
11679;SDS011;5896;42.686;23.142;2024-03-17T09:11:08;14.45;;;6.95;;
11679;SDS011;5896;42.686;23.142;2024-03-17T09:16:02;12.30;;;6.13;;
11679;SDS011;5896;42.686;23.142;2024-03-17T09:18:29;10.88;;;5.70;;
11679;SDS011;5896;42.686;23.142;2024-03-17T09:21:07;12.80;;;5.60;;
11679;SDS011;5896;42.686;23.142;2024-03-17T09:23:33;14.02;;;6.13;;
11679;SDS011;5896;42.686;23.142;2024-03-17T09:26:00;11.77;;;5.68;;
11679;SDS011;5896;42.686;23.142;2024-03-17T09:28:28;6.28;;;3.50;;
11679;SDS011;5896;42.686;23.142;2024-03-17T09:30:55;5.93;;;2.80;;
11679;SDS011;5896;42.686;23.142;2024-03-17T09:33:25;11.35;;;5.32;;
11679;SDS011;5896;42.686;23.142;2024-03-17T09:35:56;5.88;;;3.13;;
11679;SDS011;5896;42.686;23.142;2024-03-17T09:38:22;8.57;;;5.15;;
11679;SDS011;5896;42.686;23.142;2024-03-17T09:40:48;6.95;;;3.90;;
11679;SDS011;5896;42.686;23.142;2024-03-17T09:43:22;7.82;;;4.20;;
11679;SDS011;5896;42.686;23.142;2024-03-17T09:45:48;5.93;;;3.38;;
11679;SDS011;5896;42.686;23.142;2024-03-17T09:48:15;5.60;;;2.97;;
11679;SDS011;5896;42.686;23.142;2024-03-17T09:51:06;5.70;;;3.60;;
11679;SDS011;5896;42.686;23.142;2024-03-17T09:56:19;5.55;;;2.40;;
11679;SDS011;5896;42.686;23.142;2024-03-17T09:58:47;5.20;;;3.17;;
11679;SDS011;5896;42.686;23.142;2024-03-17T10:01:19;4.70;;;2.58;;
11679;SDS011;5896;42.686;23.142;2024-03-17T10:03:46;5.50;;;2.80;;
11679;SDS011;5896;42.686;23.142;2024-03-17T10:06:28;7.75;;;3.22;;
11679;SDS011;5896;42.686;23.142;2024-03-17T10:08:58;6.18;;;3.05;;
11679;SDS011;5896;42.686;23.142;2024-03-17T10:11:34;5.57;;;3.22;;
11679;SDS011;5896;42.686;23.142;2024-03-17T10:14:02;6.28;;;3.38;;
11679;SDS011;5896;42.686;23.142;2024-03-17T10:16:29;5.43;;;3.38;;
11679;SDS011;5896;42.686;23.142;2024-03-17T10:19:08;7.35;;;3.83;;
11679;SDS011;5896;42.686;23.142;2024-03-17T10:21:39;9.32;;;4.13;;
11679;SDS011;5896;42.686;23.142;2024-03-17T10:26:35;7.60;;;2.70;;
11679;SDS011;5896;42.686;23.142;2024-03-17T10:29:18;4.55;;;2.60;;
11679;SDS011;5896;42.686;23.142;2024-03-17T10:34:50;4.93;;;2.45;;
11679;SDS011;5896;42.686;23.142;2024-03-17T10:37:17;4.78;;;2.75;;
11679;SDS011;5896;42.686;23.142;2024-03-17T10:39:48;4.15;;;2.63;;
11679;SDS011;5896;42.686;23.142;2024-03-17T10:42:15;5.57;;;3.05;;
11679;SDS011;5896;42.686;23.142;2024-03-17T10:44:49;5.35;;;3.72;;
11679;SDS011;5896;42.686;23.142;2024-03-17T10:47:21;5.80;;;2.95;;
11679;SDS011;5896;42.686;23.142;2024-03-17T10:49:51;4.40;;;2.40;;
11679;SDS011;5896;42.686;23.142;2024-03-17T10:52:17;4.07;;;1.90;;
11679;SDS011;5896;42.686;23.142;2024-03-17T10:54:46;3.25;;;1.92;;
11679;SDS011;5896;42.686;23.142;2024-03-17T11:00:04;3.15;;;1.58;;
11679;SDS011;5896;42.686;23.142;2024-03-17T11:02:33;3.65;;;1.83;;
11679;SDS011;5896;42.686;23.142;2024-03-17T11:05:04;3.95;;;1.95;;
11679;SDS011;5896;42.686;23.142;2024-03-17T11:07:37;1.50;;;0.85;;
11679;SDS011;5896;42.686;23.142;2024-03-17T11:10:04;3.28;;;1.90;;
11679;SDS011;5896;42.686;23.142;2024-03-17T11:12:53;4.32;;;2.42;;
11679;SDS011;5896;42.686;23.142;2024-03-17T11:20:34;3.15;;;2.05;;
11679;SDS011;5896;42.686;23.142;2024-03-17T11:23:03;4.07;;;2.20;;
11679;SDS011;5896;42.686;23.142;2024-03-17T11:28:02;4.00;;;2.20;;
11679;SDS011;5896;42.686;23.142;2024-03-17T11:38:55;4.00;;;2.25;;
11679;SDS011;5896;42.686;23.142;2024-03-17T11:47:01;4.57;;;2.50;;
11679;SDS011;5896;42.686;23.142;2024-03-17T11:51:57;5.10;;;2.53;;
11679;SDS011;5896;42.686;23.142;2024-03-17T11:54:27;3.65;;;2.22;;
11679;SDS011;5896;42.686;23.142;2024-03-17T11:59:21;2.92;;;1.75;;
11679;SDS011;5896;42.686;23.142;2024-03-17T12:01:47;4.47;;;2.50;;
11679;SDS011;5896;42.686;23.142;2024-03-17T12:04:14;5.18;;;2.28;;
11679;SDS011;5896;42.686;23.142;2024-03-17T12:06:47;4.22;;;2.30;;
11679;SDS011;5896;42.686;23.142;2024-03-17T12:12:04;5.50;;;1.65;;
11679;SDS011;5896;42.686;23.142;2024-03-17T12:14:34;4.30;;;2.67;;
11679;SDS011;5896;42.686;23.142;2024-03-17T12:17:11;4.35;;;2.40;;
11679;SDS011;5896;42.686;23.142;2024-03-17T12:19:38;5.05;;;2.80;;
11679;SDS011;5896;42.686;23.142;2024-03-17T12:22:05;3.92;;;2.33;;
11679;SDS011;5896;42.686;23.142;2024-03-17T12:24:32;5.03;;;2.42;;
11679;SDS011;5896;42.686;23.142;2024-03-17T12:26:59;4.70;;;2.70;;
11679;SDS011;5896;42.686;23.142;2024-03-17T12:32:05;5.25;;;2.67;;
11679;SDS011;5896;42.686;23.142;2024-03-17T12:34:42;5.25;;;2.80;;
11679;SDS011;5896;42.686;23.142;2024-03-17T12:37:11;4.85;;;2.58;;
11679;SDS011;5896;42.686;23.142;2024-03-17T12:39:41;2.67;;;1.67;;
11679;SDS011;5896;42.686;23.142;2024-03-17T12:42:13;5.22;;;3.25;;
11679;SDS011;5896;42.686;23.142;2024-03-17T12:44:50;5.55;;;2.95;;
11679;SDS011;5896;42.686;23.142;2024-03-17T12:47:19;8.13;;;3.25;;
11679;SDS011;5896;42.686;23.142;2024-03-17T12:49:49;6.93;;;3.45;;
11679;SDS011;5896;42.686;23.142;2024-03-17T12:52:25;5.80;;;3.13;;
11679;SDS011;5896;42.686;23.142;2024-03-17T12:57:42;6.55;;;3.42;;
11679;SDS011;5896;42.686;23.142;2024-03-17T13:00:27;5.60;;;2.55;;
11679;SDS011;5896;42.686;23.142;2024-03-17T13:03:03;6.63;;;3.33;;
11679;SDS011;5896;42.686;23.142;2024-03-17T13:05:33;5.78;;;3.42;;
11679;SDS011;5896;42.686;23.142;2024-03-17T13:07:59;7.18;;;3.45;;
11679;SDS011;5896;42.686;23.142;2024-03-17T13:10:25;6.55;;;4.05;;
11679;SDS011;5896;42.686;23.142;2024-03-17T13:13:01;5.70;;;3.22;;
11679;SDS011;5896;42.686;23.142;2024-03-17T13:15:28;5.95;;;3.30;;
11679;SDS011;5896;42.686;23.142;2024-03-17T13:17:56;5.72;;;3.35;;
11679;SDS011;5896;42.686;23.142;2024-03-17T13:20:22;6.68;;;3.10;;
11679;SDS011;5896;42.686;23.142;2024-03-17T13:22:47;9.32;;;3.75;;
11679;SDS011;5896;42.686;23.142;2024-03-17T13:25:16;6.90;;;3.72;;
11679;SDS011;5896;42.686;23.142;2024-03-17T13:27:46;7.97;;;3.67;;
11679;SDS011;5896;42.686;23.142;2024-03-17T13:30:12;7.45;;;3.90;;
11679;SDS011;5896;42.686;23.142;2024-03-17T13:32:39;5.78;;;3.47;;
11679;SDS011;5896;42.686;23.142;2024-03-17T13:35:06;7.07;;;3.47;;
11679;SDS011;5896;42.686;23.142;2024-03-17T13:37:43;6.03;;;3.45;;
11679;SDS011;5896;42.686;23.142;2024-03-17T13:40:12;5.05;;;2.55;;
11679;SDS011;5896;42.686;23.142;2024-03-17T13:42:41;6.32;;;3.20;;
11679;SDS011;5896;42.686;23.142;2024-03-17T13:45:11;5.00;;;3.03;;
11679;SDS011;5896;42.686;23.142;2024-03-17T13:47:37;4.97;;;2.83;;
11679;SDS011;5896;42.686;23.142;2024-03-17T13:50:03;5.03;;;2.85;;
11679;SDS011;5896;42.686;23.142;2024-03-17T13:52:31;5.72;;;3.28;;
11679;SDS011;5896;42.686;23.142;2024-03-17T13:54:57;6.60;;;3.47;;
11679;SDS011;5896;42.686;23.142;2024-03-17T13:57:23;6.22;;;3.17;;
11679;SDS011;5896;42.686;23.142;2024-03-17T13:59:50;6.68;;;3.60;;
11679;SDS011;5896;42.686;23.142;2024-03-17T14:02:17;7.57;;;3.67;;
11679;SDS011;5896;42.686;23.142;2024-03-17T14:04:43;8.55;;;4.07;;
11679;SDS011;5896;42.686;23.142;2024-03-17T14:07:09;8.05;;;3.85;;
11679;SDS011;5896;42.686;23.142;2024-03-17T14:09:34;7.10;;;4.05;;
11679;SDS011;5896;42.686;23.142;2024-03-17T14:11:59;8.70;;;4.53;;
11679;SDS011;5896;42.686;23.142;2024-03-17T14:14:25;6.38;;;3.58;;
11679;SDS011;5896;42.686;23.142;2024-03-17T14:16:50;8.10;;;3.80;;
11679;SDS011;5896;42.686;23.142;2024-03-17T14:19:16;5.78;;;3.53;;
11679;SDS011;5896;42.686;23.142;2024-03-17T14:21:41;5.97;;;3.55;;
11679;SDS011;5896;42.686;23.142;2024-03-17T14:24:07;5.90;;;3.72;;
11679;SDS011;5896;42.686;23.142;2024-03-17T14:26:34;5.38;;;3.40;;
11679;SDS011;5896;42.686;23.142;2024-03-17T14:29:02;5.82;;;3.13;;
11679;SDS011;5896;42.686;23.142;2024-03-17T14:31:31;5.18;;;2.90;;
11679;SDS011;5896;42.686;23.142;2024-03-17T14:33:59;3.75;;;2.28;;
11679;SDS011;5896;42.686;23.142;2024-03-17T14:36:24;6.50;;;3.55;;
11679;SDS011;5896;42.686;23.142;2024-03-17T14:38:53;6.53;;;3.38;;
11679;SDS011;5896;42.686;23.142;2024-03-17T14:41:18;7.60;;;4.28;;
11679;SDS011;5896;42.686;23.142;2024-03-17T14:43:44;6.32;;;3.78;;
11679;SDS011;5896;42.686;23.142;2024-03-17T14:46:11;8.52;;;4.20;;
11679;SDS011;5896;42.686;23.142;2024-03-17T14:48:38;5.75;;;3.40;;
11679;SDS011;5896;42.686;23.142;2024-03-17T14:51:08;7.30;;;4.28;;
11679;SDS011;5896;42.686;23.142;2024-03-17T14:53:34;7.82;;;3.70;;
11679;SDS011;5896;42.686;23.142;2024-03-17T14:56:01;6.05;;;3.33;;
11679;SDS011;5896;42.686;23.142;2024-03-17T14:58:27;5.88;;;3.38;;
11679;SDS011;5896;42.686;23.142;2024-03-17T15:00:53;8.38;;;4.72;;
11679;SDS011;5896;42.686;23.142;2024-03-17T15:03:18;7.30;;;3.30;;
11679;SDS011;5896;42.686;23.142;2024-03-17T15:05:43;8.73;;;4.43;;
11679;SDS011;5896;42.686;23.142;2024-03-17T15:08:09;7.80;;;3.72;;
11679;SDS011;5896;42.686;23.142;2024-03-17T15:10:35;6.63;;;3.40;;
11679;SDS011;5896;42.686;23.142;2024-03-17T15:13:01;7.97;;;4.38;;
11679;SDS011;5896;42.686;23.142;2024-03-17T15:15:27;8.15;;;3.78;;
11679;SDS011;5896;42.686;23.142;2024-03-17T15:17:53;8.93;;;4.22;;
11679;SDS011;5896;42.686;23.142;2024-03-17T15:20:18;8.25;;;3.97;;
11679;SDS011;5896;42.686;23.142;2024-03-17T15:22:46;6.68;;;3.10;;
11679;SDS011;5896;42.686;23.142;2024-03-17T15:25:14;7.22;;;4.15;;
11679;SDS011;5896;42.686;23.142;2024-03-17T15:27:41;7.35;;;3.75;;
11679;SDS011;5896;42.686;23.142;2024-03-17T15:30:13;8.05;;;3.58;;
11679;SDS011;5896;42.686;23.142;2024-03-17T15:32:47;6.78;;;3.72;;